Terminal Aerodrome Forecast
Issued by NWS

Current Version | Previous Version | Text Only | Print | Product List | Glossary On
Versions: 1 2 3 4 5 6 7 8 9 10 11 12 13 14 15 16 17 18
000
FTUS46 KLOX 222010 AAA
TAFSBA
TAF AMD
KSBA 222010Z 2220/2318 26015G25KT P6SM BKN050
     FM230300 29008KT P6SM BKN050
     FM230900 VRB03KT P6SM SCT100
     FM231400 03005KT P6SM BKN025=

USA.gov is the U.S. government's official web portal to all federal, state and local government web resources and services.